sensor_id;sensor_type;location;lat;lon;timestamp;P1;durP1;ratioP1;P2;durP2;ratioP2
7773;SDS011;3931;42.260;23.116;2024-01-27T00:01:25;24.07;;;9.73;;
7773;SDS011;3931;42.260;23.116;2024-01-27T00:03:51;18.90;;;7.00;;
7773;SDS011;3931;42.260;23.116;2024-01-27T00:06:19;33.17;;;9.33;;
7773;SDS011;3931;42.260;23.116;2024-01-27T00:08:45;26.00;;;7.03;;
7773;SDS011;3931;42.260;23.116;2024-01-27T00:11:11;15.53;;;6.03;;
7773;SDS011;3931;42.260;23.116;2024-01-27T00:13:37;13.57;;;5.20;;
7773;SDS011;3931;42.260;23.116;2024-01-27T00:16:03;12.23;;;4.27;;
7773;SDS011;3931;42.260;23.116;2024-01-27T00:18:31;11.50;;;5.90;;
7773;SDS011;3931;42.260;23.116;2024-01-27T00:20:57;19.80;;;6.20;;
7773;SDS011;3931;42.260;23.116;2024-01-27T00:23:23;17.00;;;5.43;;
7773;SDS011;3931;42.260;23.116;2024-01-27T00:25:49;16.80;;;6.90;;
7773;SDS011;3931;42.260;23.116;2024-01-27T00:28:15;10.07;;;4.20;;
7773;SDS011;3931;42.260;23.116;2024-01-27T00:30:41;10.90;;;4.47;;
7773;SDS011;3931;42.260;23.116;2024-01-27T00:33:07;15.13;;;4.70;;
7773;SDS011;3931;42.260;23.116;2024-01-27T00:35:34;14.30;;;4.73;;
7773;SDS011;3931;42.260;23.116;2024-01-27T00:38:00;15.00;;;4.97;;
7773;SDS011;3931;42.260;23.116;2024-01-27T00:40:26;21.73;;;5.20;;
7773;SDS011;3931;42.260;23.116;2024-01-27T00:42:52;11.33;;;4.60;;
7773;SDS011;3931;42.260;23.116;2024-01-27T00:45:19;17.67;;;6.47;;
7773;SDS011;3931;42.260;23.116;2024-01-27T00:47:47;18.80;;;6.70;;
7773;SDS011;3931;42.260;23.116;2024-01-27T00:50:14;13.13;;;5.13;;
7773;SDS011;3931;42.260;23.116;2024-01-27T00:52:41;15.93;;;6.43;;
7773;SDS011;3931;42.260;23.116;2024-01-27T00:55:08;14.50;;;5.83;;
7773;SDS011;3931;42.260;23.116;2024-01-27T00:57:35;19.60;;;5.00;;
7773;SDS011;3931;42.260;23.116;2024-01-27T01:00:01;22.67;;;5.90;;
7773;SDS011;3931;42.260;23.116;2024-01-27T01:02:28;14.23;;;5.63;;
7773;SDS011;3931;42.260;23.116;2024-01-27T01:04:54;15.67;;;4.93;;
7773;SDS011;3931;42.260;23.116;2024-01-27T01:07:20;10.27;;;4.40;;
7773;SDS011;3931;42.260;23.116;2024-01-27T01:09:47;10.57;;;4.37;;
7773;SDS011;3931;42.260;23.116;2024-01-27T01:12:13;22.73;;;4.60;;
7773;SDS011;3931;42.260;23.116;2024-01-27T01:14:40;22.90;;;5.97;;
7773;SDS011;3931;42.260;23.116;2024-01-27T01:17:07;11.53;;;4.30;;
7773;SDS011;3931;42.260;23.116;2024-01-27T01:19:33;9.50;;;4.00;;
7773;SDS011;3931;42.260;23.116;2024-01-27T01:21:59;13.20;;;3.20;;
7773;SDS011;3931;42.260;23.116;2024-01-27T01:24:25;11.13;;;4.17;;
7773;SDS011;3931;42.260;23.116;2024-01-27T01:26:52;14.60;;;5.07;;
7773;SDS011;3931;42.260;23.116;2024-01-27T01:29:18;10.20;;;4.40;;
7773;SDS011;3931;42.260;23.116;2024-01-27T01:31:44;9.17;;;3.57;;
7773;SDS011;3931;42.260;23.116;2024-01-27T01:34:10;17.33;;;5.20;;
7773;SDS011;3931;42.260;23.116;2024-01-27T01:36:36;15.77;;;5.87;;
7773;SDS011;3931;42.260;23.116;2024-01-27T01:39:03;10.27;;;4.40;;
7773;SDS011;3931;42.260;23.116;2024-01-27T01:41:29;8.30;;;4.00;;
7773;SDS011;3931;42.260;23.116;2024-01-27T01:43:55;10.80;;;5.77;;
7773;SDS011;3931;42.260;23.116;2024-01-27T01:46:22;14.87;;;5.50;;
7773;SDS011;3931;42.260;23.116;2024-01-27T01:48:49;10.10;;;3.93;;
7773;SDS011;3931;42.260;23.116;2024-01-27T01:51:15;7.90;;;3.30;;
7773;SDS011;3931;42.260;23.116;2024-01-27T01:53:41;8.37;;;3.87;;
7773;SDS011;3931;42.260;23.116;2024-01-27T01:56:08;7.50;;;3.50;;
7773;SDS011;3931;42.260;23.116;2024-01-27T01:58:34;7.40;;;4.13;;
7773;SDS011;3931;42.260;23.116;2024-01-27T02:01:01;11.23;;;4.13;;
7773;SDS011;3931;42.260;23.116;2024-01-27T02:03:27;13.67;;;4.67;;
7773;SDS011;3931;42.260;23.116;2024-01-27T02:05:53;14.43;;;5.10;;
7773;SDS011;3931;42.260;23.116;2024-01-27T02:08:19;21.90;;;5.37;;
7773;SDS011;3931;42.260;23.116;2024-01-27T02:10:45;10.17;;;4.37;;
7773;SDS011;3931;42.260;23.116;2024-01-27T02:13:16;15.13;;;6.60;;
7773;SDS011;3931;42.260;23.116;2024-01-27T02:15:43;15.17;;;6.87;;
7773;SDS011;3931;42.260;23.116;2024-01-27T02:18:09;17.07;;;7.67;;
7773;SDS011;3931;42.260;23.116;2024-01-27T02:20:35;15.33;;;6.40;;
7773;SDS011;3931;42.260;23.116;2024-01-27T02:23:03;19.80;;;5.30;;
7773;SDS011;3931;42.260;23.116;2024-01-27T02:25:30;11.43;;;4.80;;
7773;SDS011;3931;42.260;23.116;2024-01-27T02:27:56;11.93;;;4.70;;
7773;SDS011;3931;42.260;23.116;2024-01-27T02:30:22;13.23;;;5.57;;
7773;SDS011;3931;42.260;23.116;2024-01-27T02:32:49;14.60;;;4.80;;
7773;SDS011;3931;42.260;23.116;2024-01-27T02:35:15;13.27;;;4.40;;
7773;SDS011;3931;42.260;23.116;2024-01-27T02:37:41;27.27;;;5.47;;
7773;SDS011;3931;42.260;23.116;2024-01-27T02:40:07;12.53;;;6.30;;
7773;SDS011;3931;42.260;23.116;2024-01-27T02:42:35;14.30;;;5.40;;
7773;SDS011;3931;42.260;23.116;2024-01-27T02:45:01;12.30;;;5.03;;
7773;SDS011;3931;42.260;23.116;2024-01-27T02:47:27;11.87;;;5.37;;
7773;SDS011;3931;42.260;23.116;2024-01-27T02:49:53;11.10;;;5.40;;
7773;SDS011;3931;42.260;23.116;2024-01-27T02:52:19;26.13;;;7.57;;
7773;SDS011;3931;42.260;23.116;2024-01-27T02:54:46;31.23;;;10.53;;
7773;SDS011;3931;42.260;23.116;2024-01-27T02:57:12;18.40;;;8.17;;
7773;SDS011;3931;42.260;23.116;2024-01-27T02:59:39;12.33;;;4.47;;
7773;SDS011;3931;42.260;23.116;2024-01-27T03:02:05;13.60;;;5.20;;
7773;SDS011;3931;42.260;23.116;2024-01-27T03:04:31;10.93;;;4.80;;
7773;SDS011;3931;42.260;23.116;2024-01-27T03:06:57;6.37;;;3.87;;
7773;SDS011;3931;42.260;23.116;2024-01-27T03:09:23;16.33;;;5.10;;
7773;SDS011;3931;42.260;23.116;2024-01-27T03:11:49;8.30;;;4.23;;
7773;SDS011;3931;42.260;23.116;2024-01-27T03:14:15;8.60;;;4.73;;
7773;SDS011;3931;42.260;23.116;2024-01-27T03:16:42;12.13;;;5.13;;
7773;SDS011;3931;42.260;23.116;2024-01-27T03:19:09;28.87;;;6.80;;
7773;SDS011;3931;42.260;23.116;2024-01-27T03:21:35;15.10;;;7.77;;
7773;SDS011;3931;42.260;23.116;2024-01-27T03:24:02;31.70;;;9.53;;
7773;SDS011;3931;42.260;23.116;2024-01-27T03:26:28;25.17;;;8.70;;
7773;SDS011;3931;42.260;23.116;2024-01-27T03:28:54;17.00;;;7.33;;
7773;SDS011;3931;42.260;23.116;2024-01-27T03:31:20;32.93;;;11.10;;
7773;SDS011;3931;42.260;23.116;2024-01-27T03:33:47;29.57;;;9.20;;
7773;SDS011;3931;42.260;23.116;2024-01-27T03:36:13;17.00;;;7.70;;
7773;SDS011;3931;42.260;23.116;2024-01-27T03:38:40;29.00;;;8.70;;
7773;SDS011;3931;42.260;23.116;2024-01-27T03:41:07;23.70;;;9.07;;
7773;SDS011;3931;42.260;23.116;2024-01-27T03:43:33;23.50;;;7.73;;
7773;SDS011;3931;42.260;23.116;2024-01-27T03:45:59;22.93;;;8.07;;
7773;SDS011;3931;42.260;23.116;2024-01-27T03:48:25;25.90;;;8.93;;
7773;SDS011;3931;42.260;23.116;2024-01-27T03:50:52;12.13;;;6.27;;
7773;SDS011;3931;42.260;23.116;2024-01-27T03:53:18;24.27;;;7.40;;
7773;SDS011;3931;42.260;23.116;2024-01-27T03:55:44;16.03;;;5.30;;
7773;SDS011;3931;42.260;23.116;2024-01-27T03:58:10;17.10;;;5.20;;
7773;SDS011;3931;42.260;23.116;2024-01-27T04:00:36;10.47;;;3.23;;
7773;SDS011;3931;42.260;23.116;2024-01-27T04:03:02;14.97;;;5.00;;
7773;SDS011;3931;42.260;23.116;2024-01-27T04:05:29;11.73;;;4.47;;
7773;SDS011;3931;42.260;23.116;2024-01-27T04:07:56;16.43;;;3.47;;
7773;SDS011;3931;42.260;23.116;2024-01-27T04:10:22;10.23;;;3.80;;
7773;SDS011;3931;42.260;23.116;2024-01-27T04:12:49;9.70;;;3.77;;
7773;SDS011;3931;42.260;23.116;2024-01-27T04:15:15;22.70;;;6.93;;
7773;SDS011;3931;42.260;23.116;2024-01-27T04:17:41;15.80;;;6.03;;
7773;SDS011;3931;42.260;23.116;2024-01-27T04:20:07;21.17;;;6.27;;
7773;SDS011;3931;42.260;23.116;2024-01-27T04:22:35;25.67;;;9.20;;
7773;SDS011;3931;42.260;23.116;2024-01-27T04:25:01;28.50;;;7.57;;
7773;SDS011;3931;42.260;23.116;2024-01-27T04:27:28;23.40;;;10.50;;
7773;SDS011;3931;42.260;23.116;2024-01-27T04:29:55;33.27;;;13.00;;
7773;SDS011;3931;42.260;23.116;2024-01-27T04:32:21;35.23;;;9.27;;
7773;SDS011;3931;42.260;23.116;2024-01-27T04:34:48;32.77;;;10.00;;
7773;SDS011;3931;42.260;23.116;2024-01-27T04:37:14;47.07;;;6.17;;
7773;SDS011;3931;42.260;23.116;2024-01-27T04:39:41;14.83;;;5.87;;
7773;SDS011;3931;42.260;23.116;2024-01-27T04:42:07;18.40;;;7.20;;
7773;SDS011;3931;42.260;23.116;2024-01-27T04:44:33;17.50;;;6.23;;
7773;SDS011;3931;42.260;23.116;2024-01-27T04:47:00;12.43;;;6.73;;
7773;SDS011;3931;42.260;23.116;2024-01-27T04:49:26;26.13;;;9.13;;
7773;SDS011;3931;42.260;23.116;2024-01-27T04:51:53;17.20;;;8.67;;
7773;SDS011;3931;42.260;23.116;2024-01-27T04:54:19;16.53;;;7.60;;
7773;SDS011;3931;42.260;23.116;2024-01-27T04:56:45;23.93;;;9.20;;
7773;SDS011;3931;42.260;23.116;2024-01-27T04:59:11;17.10;;;7.67;;
7773;SDS011;3931;42.260;23.116;2024-01-27T05:01:37;18.70;;;6.80;;
7773;SDS011;3931;42.260;23.116;2024-01-27T05:04:03;21.80;;;7.83;;
7773;SDS011;3931;42.260;23.116;2024-01-27T05:06:30;54.57;;;9.60;;
7773;SDS011;3931;42.260;23.116;2024-01-27T05:08:56;25.97;;;9.00;;
7773;SDS011;3931;42.260;23.116;2024-01-27T05:11:25;22.87;;;8.30;;
7773;SDS011;3931;42.260;23.116;2024-01-27T05:13:52;22.67;;;6.20;;
7773;SDS011;3931;42.260;23.116;2024-01-27T05:16:18;15.17;;;5.93;;
7773;SDS011;3931;42.260;23.116;2024-01-27T05:18:44;21.10;;;6.67;;
7773;SDS011;3931;42.260;23.116;2024-01-27T05:21:10;25.37;;;8.63;;
7773;SDS011;3931;42.260;23.116;2024-01-27T05:23:37;23.13;;;9.70;;
7773;SDS011;3931;42.260;23.116;2024-01-27T05:26:04;18.10;;;7.80;;
7773;SDS011;3931;42.260;23.116;2024-01-27T05:28:31;19.17;;;8.50;;
7773;SDS011;3931;42.260;23.116;2024-01-27T05:30:57;19.40;;;7.60;;
7773;SDS011;3931;42.260;23.116;2024-01-27T05:33:23;15.10;;;7.07;;
7773;SDS011;3931;42.260;23.116;2024-01-27T05:35:50;14.37;;;6.73;;
7773;SDS011;3931;42.260;23.116;2024-01-27T05:38:16;12.53;;;7.07;;
7773;SDS011;3931;42.260;23.116;2024-01-27T05:40:42;20.83;;;8.00;;
7773;SDS011;3931;42.260;23.116;2024-01-27T05:43:10;19.70;;;7.80;;
7773;SDS011;3931;42.260;23.116;2024-01-27T05:45:36;18.50;;;7.07;;
7773;SDS011;3931;42.260;23.116;2024-01-27T05:48:02;24.97;;;8.90;;
7773;SDS011;3931;42.260;23.116;2024-01-27T05:50:29;17.10;;;7.40;;
7773;SDS011;3931;42.260;23.116;2024-01-27T05:52:57;19.90;;;7.20;;
7773;SDS011;3931;42.260;23.116;2024-01-27T05:55:23;21.10;;;8.00;;
7773;SDS011;3931;42.260;23.116;2024-01-27T05:57:49;26.73;;;10.43;;
7773;SDS011;3931;42.260;23.116;2024-01-27T06:00:15;21.43;;;8.77;;
7773;SDS011;3931;42.260;23.116;2024-01-27T06:02:41;24.23;;;10.70;;
7773;SDS011;3931;42.260;23.116;2024-01-27T06:05:08;27.73;;;10.80;;
7773;SDS011;3931;42.260;23.116;2024-01-27T06:07:35;35.17;;;8.17;;
7773;SDS011;3931;42.260;23.116;2024-01-27T06:10:04;16.70;;;7.20;;
7773;SDS011;3931;42.260;23.116;2024-01-27T06:12:32;23.43;;;8.83;;
7773;SDS011;3931;42.260;23.116;2024-01-27T06:14:58;19.93;;;8.90;;
7773;SDS011;3931;42.260;23.116;2024-01-27T06:17:24;23.63;;;9.07;;
7773;SDS011;3931;42.260;23.116;2024-01-27T06:19:50;27.33;;;13.63;;
7773;SDS011;3931;42.260;23.116;2024-01-27T06:22:16;20.80;;;10.53;;
7773;SDS011;3931;42.260;23.116;2024-01-27T06:24:43;23.90;;;7.87;;
7773;SDS011;3931;42.260;23.116;2024-01-27T06:27:09;18.50;;;6.50;;
7773;SDS011;3931;42.260;23.116;2024-01-27T06:29:35;17.50;;;7.27;;
7773;SDS011;3931;42.260;23.116;2024-01-27T06:32:01;16.90;;;7.77;;
7773;SDS011;3931;42.260;23.116;2024-01-27T06:34:28;30.20;;;8.93;;
7773;SDS011;3931;42.260;23.116;2024-01-27T06:36:54;20.70;;;8.93;;
7773;SDS011;3931;42.260;23.116;2024-01-27T06:39:20;31.27;;;10.17;;
7773;SDS011;3931;42.260;23.116;2024-01-27T06:41:47;27.77;;;11.00;;
7773;SDS011;3931;42.260;23.116;2024-01-27T06:44:13;50.53;;;14.67;;
7773;SDS011;3931;42.260;23.116;2024-01-27T06:46:39;54.53;;;16.20;;
7773;SDS011;3931;42.260;23.116;2024-01-27T06:49:05;70.53;;;18.07;;
7773;SDS011;3931;42.260;23.116;2024-01-27T06:51:31;33.33;;;13.10;;
7773;SDS011;3931;42.260;23.116;2024-01-27T06:53:57;36.03;;;12.50;;
7773;SDS011;3931;42.260;23.116;2024-01-27T06:56:23;20.60;;;10.33;;
7773;SDS011;3931;42.260;23.116;2024-01-27T06:58:50;33.67;;;13.70;;
7773;SDS011;3931;42.260;23.116;2024-01-27T07:01:16;26.13;;;10.63;;
7773;SDS011;3931;42.260;23.116;2024-01-27T07:03:42;42.20;;;15.73;;
7773;SDS011;3931;42.260;23.116;2024-01-27T07:06:09;34.57;;;13.50;;
7773;SDS011;3931;42.260;23.116;2024-01-27T07:08:35;39.30;;;13.80;;
7773;SDS011;3931;42.260;23.116;2024-01-27T07:11:02;38.40;;;17.40;;
7773;SDS011;3931;42.260;23.116;2024-01-27T07:13:28;31.13;;;11.80;;
7773;SDS011;3931;42.260;23.116;2024-01-27T07:15:55;42.70;;;15.07;;
7773;SDS011;3931;42.260;23.116;2024-01-27T07:18:22;40.77;;;16.53;;
7773;SDS011;3931;42.260;23.116;2024-01-27T07:20:48;38.93;;;14.97;;
7773;SDS011;3931;42.260;23.116;2024-01-27T07:23:14;27.23;;;12.30;;
7773;SDS011;3931;42.260;23.116;2024-01-27T07:25:40;45.33;;;19.50;;
7773;SDS011;3931;42.260;23.116;2024-01-27T07:28:06;60.47;;;24.87;;
7773;SDS011;3931;42.260;23.116;2024-01-27T07:30:32;44.80;;;19.40;;
7773;SDS011;3931;42.260;23.116;2024-01-27T07:32:59;43.40;;;18.93;;
7773;SDS011;3931;42.260;23.116;2024-01-27T07:35:25;54.73;;;23.87;;
7773;SDS011;3931;42.260;23.116;2024-01-27T07:37:51;59.77;;;23.60;;
7773;SDS011;3931;42.260;23.116;2024-01-27T07:40:17;47.07;;;17.90;;
7773;SDS011;3931;42.260;23.116;2024-01-27T07:42:43;52.03;;;22.67;;
7773;SDS011;3931;42.260;23.116;2024-01-27T07:45:09;52.13;;;23.20;;
7773;SDS011;3931;42.260;23.116;2024-01-27T07:47:35;56.17;;;19.47;;
7773;SDS011;3931;42.260;23.116;2024-01-27T07:50:02;35.90;;;14.37;;
7773;SDS011;3931;42.260;23.116;2024-01-27T07:52:29;31.20;;;10.40;;
7773;SDS011;3931;42.260;23.116;2024-01-27T07:54:55;21.33;;;10.20;;
7773;SDS011;3931;42.260;23.116;2024-01-27T07:57:21;15.40;;;8.70;;
7773;SDS011;3931;42.260;23.116;2024-01-27T07:59:47;30.47;;;13.67;;
7773;SDS011;3931;42.260;23.116;2024-01-27T08:02:13;32.43;;;12.90;;
7773;SDS011;3931;42.260;23.116;2024-01-27T08:04:39;41.17;;;14.90;;
7773;SDS011;3931;42.260;23.116;2024-01-27T08:07:06;22.13;;;9.57;;
7773;SDS011;3931;42.260;23.116;2024-01-27T08:09:34;24.23;;;10.80;;
7773;SDS011;3931;42.260;23.116;2024-01-27T08:12:01;15.77;;;9.03;;
7773;SDS011;3931;42.260;23.116;2024-01-27T08:14:27;18.80;;;9.47;;
7773;SDS011;3931;42.260;23.116;2024-01-27T08:16:55;16.30;;;7.33;;
7773;SDS011;3931;42.260;23.116;2024-01-27T08:19:21;21.77;;;9.17;;
7773;SDS011;3931;42.260;23.116;2024-01-27T08:21:47;25.07;;;10.93;;
7773;SDS011;3931;42.260;23.116;2024-01-27T08:24:14;18.90;;;8.60;;
7773;SDS011;3931;42.260;23.116;2024-01-27T08:26:40;29.13;;;15.00;;
7773;SDS011;3931;42.260;23.116;2024-01-27T08:29:07;23.70;;;11.33;;
7773;SDS011;3931;42.260;23.116;2024-01-27T08:31:33;34.40;;;16.10;;
7773;SDS011;3931;42.260;23.116;2024-01-27T08:33:59;69.73;;;23.60;;
7773;SDS011;3931;42.260;23.116;2024-01-27T08:36:25;31.07;;;13.57;;
7773;SDS011;3931;42.260;23.116;2024-01-27T08:38:51;18.63;;;7.20;;
7773;SDS011;3931;42.260;23.116;2024-01-27T08:41:18;12.03;;;4.80;;
7773;SDS011;3931;42.260;23.116;2024-01-27T08:43:44;31.37;;;13.63;;
7773;SDS011;3931;42.260;23.116;2024-01-27T08:46:10;25.93;;;12.07;;
7773;SDS011;3931;42.260;23.116;2024-01-27T08:48:38;18.67;;;10.43;;
7773;SDS011;3931;42.260;23.116;2024-01-27T08:51:07;18.70;;;8.83;;
7773;SDS011;3931;42.260;23.116;2024-01-27T08:53:34;18.20;;;8.03;;
7773;SDS011;3931;42.260;23.116;2024-01-27T08:56:00;11.67;;;3.80;;
7773;SDS011;3931;42.260;23.116;2024-01-27T08:58:27;11.10;;;4.80;;
7773;SDS011;3931;42.260;23.116;2024-01-27T09:00:53;11.03;;;5.60;;
7773;SDS011;3931;42.260;23.116;2024-01-27T09:03:19;6.10;;;3.23;;
7773;SDS011;3931;42.260;23.116;2024-01-27T09:05:45;8.40;;;3.27;;
7773;SDS011;3931;42.260;23.116;2024-01-27T09:08:11;9.97;;;4.73;;
7773;SDS011;3931;42.260;23.116;2024-01-27T09:10:38;11.67;;;4.40;;
7773;SDS011;3931;42.260;23.116;2024-01-27T09:13:04;16.90;;;8.90;;
7773;SDS011;3931;42.260;23.116;2024-01-27T09:15:30;29.17;;;20.70;;
7773;SDS011;3931;42.260;23.116;2024-01-27T09:17:57;46.90;;;29.57;;
7773;SDS011;3931;42.260;23.116;2024-01-27T09:20:23;15.73;;;7.27;;
7773;SDS011;3931;42.260;23.116;2024-01-27T09:22:49;21.13;;;10.10;;
7773;SDS011;3931;42.260;23.116;2024-01-27T09:25:15;23.17;;;11.60;;
7773;SDS011;3931;42.260;23.116;2024-01-27T09:27:42;17.80;;;6.00;;
7773;SDS011;3931;42.260;23.116;2024-01-27T09:30:08;9.13;;;4.70;;
7773;SDS011;3931;42.260;23.116;2024-01-27T09:32:35;21.90;;;10.80;;
7773;SDS011;3931;42.260;23.116;2024-01-27T09:35:02;21.60;;;8.50;;
7773;SDS011;3931;42.260;23.116;2024-01-27T09:37:28;20.40;;;7.67;;
7773;SDS011;3931;42.260;23.116;2024-01-27T09:39:54;21.53;;;6.47;;
7773;SDS011;3931;42.260;23.116;2024-01-27T09:42:20;13.93;;;5.47;;
7773;SDS011;3931;42.260;23.116;2024-01-27T09:44:48;12.90;;;4.93;;
7773;SDS011;3931;42.260;23.116;2024-01-27T09:47:15;15.43;;;11.57;;
7773;SDS011;3931;42.260;23.116;2024-01-27T09:49:42;18.93;;;8.90;;
7773;SDS011;3931;42.260;23.116;2024-01-27T09:52:09;28.37;;;10.30;;
7773;SDS011;3931;42.260;23.116;2024-01-27T09:54:35;15.07;;;8.83;;
7773;SDS011;3931;42.260;23.116;2024-01-27T09:57:01;27.30;;;9.13;;
7773;SDS011;3931;42.260;23.116;2024-01-27T09:59:28;21.10;;;9.53;;
7773;SDS011;3931;42.260;23.116;2024-01-27T10:01:55;28.00;;;10.50;;
7773;SDS011;3931;42.260;23.116;2024-01-27T10:04:24;23.57;;;10.67;;
7773;SDS011;3931;42.260;23.116;2024-01-27T10:06:51;25.33;;;13.10;;
7773;SDS011;3931;42.260;23.116;2024-01-27T10:09:18;21.03;;;10.27;;
7773;SDS011;3931;42.260;23.116;2024-01-27T10:11:46;16.57;;;8.50;;
7773;SDS011;3931;42.260;23.116;2024-01-27T10:14:13;16.63;;;7.53;;
7773;SDS011;3931;42.260;23.116;2024-01-27T10:16:39;21.70;;;8.20;;
7773;SDS011;3931;42.260;23.116;2024-01-27T10:19:08;15.80;;;7.60;;
7773;SDS011;3931;42.260;23.116;2024-01-27T10:21:40;18.60;;;8.07;;
7773;SDS011;3931;42.260;23.116;2024-01-27T10:24:07;19.27;;;9.03;;
7773;SDS011;3931;42.260;23.116;2024-01-27T10:26:33;26.97;;;15.03;;
7773;SDS011;3931;42.260;23.116;2024-01-27T10:29:00;32.63;;;14.20;;
7773;SDS011;3931;42.260;23.116;2024-01-27T10:31:27;31.23;;;14.33;;
7773;SDS011;3931;42.260;23.116;2024-01-27T10:33:53;34.23;;;17.40;;
7773;SDS011;3931;42.260;23.116;2024-01-27T10:36:21;39.30;;;16.50;;
7773;SDS011;3931;42.260;23.116;2024-01-27T10:38:48;45.13;;;17.13;;
7773;SDS011;3931;42.260;23.116;2024-01-27T10:41:16;32.40;;;15.33;;
7773;SDS011;3931;42.260;23.116;2024-01-27T10:43:47;21.70;;;8.53;;
7773;SDS011;3931;42.260;23.116;2024-01-27T10:46:16;21.83;;;8.47;;
7773;SDS011;3931;42.260;23.116;2024-01-27T10:48:45;4.00;;;1.83;;
7773;SDS011;3931;42.260;23.116;2024-01-27T10:51:15;17.13;;;9.40;;
7773;SDS011;3931;42.260;23.116;2024-01-27T10:53:44;24.73;;;10.73;;
7773;SDS011;3931;42.260;23.116;2024-01-27T10:56:15;29.77;;;11.70;;
7773;SDS011;3931;42.260;23.116;2024-01-27T10:58:42;20.23;;;10.73;;
7773;SDS011;3931;42.260;23.116;2024-01-27T11:01:12;59.97;;;22.03;;
7773;SDS011;3931;42.260;23.116;2024-01-27T11:03:39;58.37;;;21.13;;
7773;SDS011;3931;42.260;23.116;2024-01-27T11:06:06;46.10;;;17.13;;
7773;SDS011;3931;42.260;23.116;2024-01-27T11:08:33;51.57;;;17.73;;
7773;SDS011;3931;42.260;23.116;2024-01-27T11:10:59;32.37;;;14.47;;
7773;SDS011;3931;42.260;23.116;2024-01-27T11:13:27;42.33;;;16.20;;
7773;SDS011;3931;42.260;23.116;2024-01-27T11:15:55;23.07;;;11.10;;
7773;SDS011;3931;42.260;23.116;2024-01-27T11:18:24;35.57;;;16.97;;
7773;SDS011;3931;42.260;23.116;2024-01-27T11:20:52;40.20;;;19.00;;
7773;SDS011;3931;42.260;23.116;2024-01-27T11:23:19;43.00;;;17.93;;
7773;SDS011;3931;42.260;23.116;2024-01-27T11:25:45;53.30;;;18.97;;
7773;SDS011;3931;42.260;23.116;2024-01-27T11:28:11;27.67;;;14.73;;
7773;SDS011;3931;42.260;23.116;2024-01-27T11:30:39;32.90;;;14.10;;
7773;SDS011;3931;42.260;23.116;2024-01-27T11:33:11;26.33;;;15.20;;
7773;SDS011;3931;42.260;23.116;2024-01-27T11:35:38;20.63;;;7.50;;
7773;SDS011;3931;42.260;23.116;2024-01-27T11:38:04;36.23;;;16.23;;
7773;SDS011;3931;42.260;23.116;2024-01-27T11:40:30;38.80;;;18.70;;
7773;SDS011;3931;42.260;23.116;2024-01-27T11:42:56;34.57;;;16.43;;
7773;SDS011;3931;42.260;23.116;2024-01-27T11:45:23;23.33;;;10.80;;
7773;SDS011;3931;42.260;23.116;2024-01-27T11:47:49;21.83;;;11.33;;
7773;SDS011;3931;42.260;23.116;2024-01-27T11:50:16;13.50;;;7.47;;
7773;SDS011;3931;42.260;23.116;2024-01-27T11:52:43;21.10;;;9.23;;
7773;SDS011;3931;42.260;23.116;2024-01-27T11:55:10;10.67;;;5.07;;
7773;SDS011;3931;42.260;23.116;2024-01-27T11:57:36;24.40;;;10.70;;
7773;SDS011;3931;42.260;23.116;2024-01-27T12:00:02;28.87;;;13.40;;
7773;SDS011;3931;42.260;23.116;2024-01-27T12:02:29;35.13;;;12.60;;
7773;SDS011;3931;42.260;23.116;2024-01-27T12:04:56;18.00;;;9.30;;
7773;SDS011;3931;42.260;23.116;2024-01-27T12:07:22;18.20;;;8.53;;
7773;SDS011;3931;42.260;23.116;2024-01-27T12:09:48;6.93;;;4.47;;
7773;SDS011;3931;42.260;23.116;2024-01-27T12:12:15;24.43;;;10.07;;
7773;SDS011;3931;42.260;23.116;2024-01-27T12:14:42;5.80;;;3.33;;
7773;SDS011;3931;42.260;23.116;2024-01-27T12:17:11;13.07;;;6.63;;
7773;SDS011;3931;42.260;23.116;2024-01-27T12:19:37;9.50;;;4.00;;
7773;SDS011;3931;42.260;23.116;2024-01-27T12:22:05;6.03;;;3.37;;
7773;SDS011;3931;42.260;23.116;2024-01-27T12:24:47;6.63;;;4.13;;
7773;SDS011;3931;42.260;23.116;2024-01-27T12:27:13;17.70;;;7.40;;
7773;SDS011;3931;42.260;23.116;2024-01-27T12:29:41;10.80;;;4.80;;
7773;SDS011;3931;42.260;23.116;2024-01-27T12:32:07;8.37;;;5.07;;
7773;SDS011;3931;42.260;23.116;2024-01-27T12:34:39;7.50;;;4.53;;
7773;SDS011;3931;42.260;23.116;2024-01-27T12:37:14;17.90;;;8.27;;
7773;SDS011;3931;42.260;23.116;2024-01-27T12:39:41;11.37;;;6.00;;
7773;SDS011;3931;42.260;23.116;2024-01-27T12:42:09;6.10;;;3.10;;
7773;SDS011;3931;42.260;23.116;2024-01-27T12:44:35;19.00;;;7.67;;
7773;SDS011;3931;42.260;23.116;2024-01-27T12:47:01;5.90;;;2.57;;
7773;SDS011;3931;42.260;23.116;2024-01-27T12:49:28;6.60;;;3.27;;
7773;SDS011;3931;42.260;23.116;2024-01-27T12:51:55;5.10;;;3.00;;
7773;SDS011;3931;42.260;23.116;2024-01-27T12:54:22;25.00;;;8.37;;
7773;SDS011;3931;42.260;23.116;2024-01-27T12:56:48;24.47;;;8.93;;
7773;SDS011;3931;42.260;23.116;2024-01-27T12:59:14;8.90;;;4.40;;
7773;SDS011;3931;42.260;23.116;2024-01-27T13:01:40;21.33;;;11.43;;
7773;SDS011;3931;42.260;23.116;2024-01-27T13:04:06;20.93;;;9.73;;
7773;SDS011;3931;42.260;23.116;2024-01-27T13:06:33;17.07;;;9.77;;
7773;SDS011;3931;42.260;23.116;2024-01-27T13:08:59;25.17;;;12.23;;
7773;SDS011;3931;42.260;23.116;2024-01-27T13:11:26;13.83;;;5.43;;
7773;SDS011;3931;42.260;23.116;2024-01-27T13:13:52;8.60;;;3.20;;
7773;SDS011;3931;42.260;23.116;2024-01-27T13:16:18;5.60;;;2.53;;
7773;SDS011;3931;42.260;23.116;2024-01-27T13:18:44;5.63;;;4.13;;
7773;SDS011;3931;42.260;23.116;2024-01-27T13:21:11;8.63;;;2.87;;
7773;SDS011;3931;42.260;23.116;2024-01-27T13:23:37;9.70;;;4.43;;
7773;SDS011;3931;42.260;23.116;2024-01-27T13:26:03;10.60;;;5.23;;
7773;SDS011;3931;42.260;23.116;2024-01-27T13:28:30;14.03;;;5.63;;
7773;SDS011;3931;42.260;23.116;2024-01-27T13:30:56;9.43;;;5.27;;
7773;SDS011;3931;42.260;23.116;2024-01-27T13:33:23;5.33;;;3.40;;
7773;SDS011;3931;42.260;23.116;2024-01-27T13:35:49;8.97;;;5.00;;
7773;SDS011;3931;42.260;23.116;2024-01-27T13:38:15;6.40;;;3.47;;
7773;SDS011;3931;42.260;23.116;2024-01-27T13:40:45;4.87;;;2.70;;
7773;SDS011;3931;42.260;23.116;2024-01-27T13:43:11;6.80;;;3.70;;
7773;SDS011;3931;42.260;23.116;2024-01-27T13:45:38;7.03;;;3.37;;
7773;SDS011;3931;42.260;23.116;2024-01-27T13:48:04;6.87;;;3.50;;
7773;SDS011;3931;42.260;23.116;2024-01-27T13:50:31;8.33;;;3.13;;
7773;SDS011;3931;42.260;23.116;2024-01-27T13:52:57;14.77;;;4.47;;
7773;SDS011;3931;42.260;23.116;2024-01-27T13:55:23;9.77;;;4.30;;
7773;SDS011;3931;42.260;23.116;2024-01-27T13:57:49;6.73;;;3.60;;
7773;SDS011;3931;42.260;23.116;2024-01-27T14:00:16;9.57;;;3.10;;
7773;SDS011;3931;42.260;23.116;2024-01-27T14:02:43;6.33;;;2.40;;
7773;SDS011;3931;42.260;23.116;2024-01-27T14:05:09;7.20;;;3.40;;
7773;SDS011;3931;42.260;23.116;2024-01-27T14:07:35;9.40;;;4.60;;
7773;SDS011;3931;42.260;23.116;2024-01-27T14:10:01;13.13;;;4.20;;
7773;SDS011;3931;42.260;23.116;2024-01-27T14:12:27;9.20;;;3.83;;
7773;SDS011;3931;42.260;23.116;2024-01-27T14:15:01;5.40;;;2.87;;
7773;SDS011;3931;42.260;23.116;2024-01-27T14:17:28;8.40;;;3.10;;
7773;SDS011;3931;42.260;23.116;2024-01-27T14:19:55;5.77;;;2.77;;
7773;SDS011;3931;42.260;23.116;2024-01-27T14:22:21;7.27;;;3.13;;
7773;SDS011;3931;42.260;23.116;2024-01-27T14:24:47;9.70;;;3.40;;
7773;SDS011;3931;42.260;23.116;2024-01-27T14:27:14;27.47;;;9.17;;
7773;SDS011;3931;42.260;23.116;2024-01-27T14:29:41;14.53;;;3.33;;
7773;SDS011;3931;42.260;23.116;2024-01-27T14:32:07;9.40;;;3.30;;
7773;SDS011;3931;42.260;23.116;2024-01-27T14:34:34;7.20;;;3.30;;
7773;SDS011;3931;42.260;23.116;2024-01-27T14:37:00;6.93;;;3.93;;
7773;SDS011;3931;42.260;23.116;2024-01-27T14:39:27;12.83;;;4.40;;
7773;SDS011;3931;42.260;23.116;2024-01-27T14:41:56;12.43;;;3.47;;